Pahrump, Nevada
Current Conditions -  °F | °C
As of 12:52 AM on Wednesday 26 Nov 2014 (Local Time) from KDRA Reporting Station
Clear Clear  
Wind Chill: 34°   Ceiling: Unl
Heat Index: 38°   Visibility: 10mi
Dew Point:   Wind: 5mph
Humidity: 27%   Direction: 110°ESE
Pressure: 30.39"   Gusts: NA
Location:  36.21°N, 115.99°W
Report Text: KDRA 260852Z AUTO 11004KT 10SM CLR 03/M14 A3039 RMK AO2 SLP278 T00331144 58003
Loading
Personal Weather Stations






























Interactive Weather Map New forecast layout! Learn more

10-Day Weather Forecast

Advertisements
Track Severe Weather on mobile